Annapolis, CA

2:37 PM PDT on September 30, 2014 (GMT -0700)
Ukiah Municipal | Change Station
CLOSE
Current Station
Airport
Location: Ukiah,
Elevation: 614 ft
Nearby Weather Stations

Elev 614 ft 39.13 °N, 123.20 °W | Updated 41 minutes ago

Clear
Clear
80 °F
Feels Like 80 °F
N
12
Wind Variable Wind from NNW

Today
High -- | Low -- °F
--% Chance of Precip.
Yesterday
High -- | Low -- °F
Precip. -- in
7:08 AM 6:57 PM
Waxing Crescent, 40% visible
Pressure 29.90 in
Visibility 10.0 miles
Clouds Clear
Dew Point 49 °F
Humidity 34%
Rainfall 0.00 in
Snow Depth 0 in , 1 in , 0 in
UV 7 out of 12
Pollen 2.80 out of 12
Ozone Good
Flu Activity Not available.
METAR KUKI 302056Z AUTO 33010KT 10SM CLR 27/09 A2991 RMK AO2 SLP123 T02670094 58018

More Conditions Fewer Conditions

Pressure 29.90 in
Visibility 10.0 miles
Clouds Clear
Dew Point 49 °F
Humidity 34%
Rainfall 0.00 in
Snow Depth 0 in , 1 in , 0 in
UV 7 out of 12
Pollen 2.80 out of 12
Ozone Good
Flu Activity Not available.
METAR KUKI 302056Z AUTO 33010KT 10SM CLR 27/09 A2991 RMK AO2 SLP123 T02670094 58018

More Conditions Fewer Conditions

10-Day Weather Forecast

Almanac

Astronomy

Sep. 30, 2014 Rise Set
Actual Time 7:08 AM PDT 6:57 PM PDT
Civil Twilight 6:41 AM PDT 7:23 PM PDT
Nautical Twilight 6:11 AM PDT 7:54 PM PDT
Astronomical Twilight 5:39 AM PDT 8:25 PM PDT
Moon 1:18 PM PDT 11:36 PM PDT
Length of Visible Light 12h 42m
Length of Day
11h 49m
Tomorrow will be 2m 29s shorter.
Waxing Crescent, 40% of the Moon is Illuminated
Today
Waxing Crescent
Oct 1
First Quarter
Oct 8
Full
Oct 15
Last Quarter
Oct 23
New

Today's Extremes

State Highs State Lows

Community

WunderPhotos

Upload Photos

1,757,755 photos uploaded!

Nearby

Air Quality

  Air Quality AQ Index Pollutant
Yesterday Good
OZONE
Current Good
OZONE
Tuesday Good
PM2.5
Wednesday Good
PM2.5
Thursday Moderate
PM2.5
Friday Moderate
PM2.5
Saturday Moderate
PM2.5
Sunday Moderate
PM2.5

Snow Depth

Station Depth Elevation
Adin Mountain 0 in 6200 ft
CSS Lab 1 in 6900 ft
Squaw Valley 0 in 8200 ft
Rubicon #2 0 in 7500 ft
Summit Meadow 0 in 9122 ft

Earthquake Activity

City Distance Mag. Time & Date
American Canyon, California 65 miles 2.5 12:17 AM PDT
2014-09-29
Ferndale, California 170 miles 3.0 6:53 AM PDT
2014-09-28
Minimum magnitude displayed is 2.5.

Coastal Water Temperatures

Place Temperature
Point Reyes, CA 60.1 °F
Arena Cove, CA 55.9 °F
San Francisco, CA 66.0 °F
Richmond, CA 68.0 °F

Nearby Weather Stations